• Join FlightAware (Why Join?)
  • Login
  • US Flag 
07:11PM EDT


 

Airport Tracker/Info


-or-


 

Live Flight TrackerFlight Track Log ✈ JBU1212 ✈ 10-May-2013 ✈ KBUF - KBOS

Flight Track Log - Related Links

Times and Time Zones

All times are in EDT time to prevent confusion due to time zone crossing. See the JBU1212 flight status page for this flight to view local times or setup timezone preferences in your user account.

Time Position Orientation Groundspeed Altitude Reporting Facility
EDT Latitude Longitude Course Direction KTS MPH feet Rate Location/Type
09:35AM 42.9333 -78.7500 90° East 130 150 2,000  Level Buffalo TRACON
09:36AM 42.9000 -78.7667 200° South 163 188 3,500 2,640 Climbing Buffalo TRACON
09:38AM 42.9216 -78.2886 90° East  Level Estimated
09:38AM 42.8633 -78.5550 103° East 274 315 10,100  Level Cleveland Center
09:39AM 42.9150 -78.1413 90° East  Level Estimated
09:39AM 42.8181 -78.4689 126° Southeast 274 315 13,600  Level Cleveland Center
09:40AM 42.9081 -77.9941 90° East  Level Estimated
09:40AM 42.8117 -78.3444 94° East 281 323 15,500  Level Cleveland Center
09:41AM 42.8153 -78.2142 88° East 316 364 17,700 2,400 Climbing Cleveland Center
09:42AM 42.8228 -78.0722 86° East 346 398 20,400 1,920 Climbing Cleveland Center
09:43AM 42.8383 -77.9300 81° East 368 423 21,600 960 Climbing Cleveland Center
09:44AM 42.8486 -77.7511 85° East 397 457 22,400 1,200 Climbing Cleveland Center
09:45AM 42.8464 -77.5758 91° East 428 493 24,000 1,500 Climbing Cleveland Center
09:46AM 42.8458 -77.4003 90° East 457 526 25,500 1,380 Climbing Cleveland Center
09:48AM 42.8383 -76.9997 91° East 479 551 28,700 1,620 Climbing Boston Center
09:49AM 42.8372 -76.8211 90° East 479 551 30,900 1,140 Climbing Boston Center
09:50AM 42.8344 -76.6169 91° East 489 563 31,000  Climbing Boston Center
09:51AM 42.8306 -76.4325 92° East 489 563 31,000  Level Boston Center
09:52AM 42.8272 -76.2850 92° East 489 563 31,000 -60 Level Boston Center
09:53AM 42.8219 -76.0639 92° East 489 563 30,900 -60 Descending Boston Center
09:54AM 42.8172 -75.8794 92° East 489 563 30,900  Level Boston Center
09:56AM 42.8125 -75.6894 92° East 489 563 31,000  Climbing Boston Center
09:57AM 42.8064 -75.4628 92° East 500 575 31,000  Level Boston Center
09:58AM 42.7522 -75.2903 113° Southeast 483 556 31,000 -60 Level Boston Center
09:59AM 42.6597 -75.1561 133° Southeast 476 548 30,900  Descending Boston Center
10:00AM 42.6072 -74.9903 113° Southeast 474 545 31,000  Climbing Boston Center
10:01AM 42.6261 -74.7992 82° East 461 531 31,000  Level Boston Center
10:02AM 42.6506 -74.6167 80° East 480 552 31,000  Level Boston Center
10:03AM 42.6706 -74.4367 81° East 480 552 31,000 -60 Level Boston Center
10:04AM 42.6944 -74.2536 80° East 480 552 30,900 -60 Descending Boston Center
10:05AM 42.7158 -74.0706 81° East 485 558 30,900 -240 Level Boston Center
10:06AM 42.7372 -73.8847 81° East 485 558 30,500 -720 Descending Boston Center
10:07AM 42.7372 -73.7094 90° East 478 550 29,500 -780 Descending Boston Center
10:08AM 42.7222 -73.5422 97° East 454 522 29,000 -300 Descending Boston Center
10:09AM 42.7031 -73.3753 99° East 449 517 29,000 -120 Level Boston Center
10:10AM 42.6872 -73.2308 98° East 437 503 28,800 -720 Descending Boston Center
10:11AM 42.6717 -73.0669 97° East 437 503 27,600 -1,680 Descending Boston Center
10:12AM 42.6475 -72.8719 99° East 456 525 25,500 -1,800 Descending Boston Center
10:13AM 42.6314 -72.7336 99° East 456 525 24,100 -1,740 Descending Boston Center
10:14AM 42.6128 -72.5642 98° East 440 506 22,100 -2,100 Descending Boston Center
10:15AM 42.5881 -72.3808 100° East 445 512 20,000 -1,680 Descending Boston Center
10:16AM 42.5753 -72.2822 100° East 436 502 18,800 -1,800 Descending Boston Center
10:17AM 42.5478 -72.0878 101° East 404 465 16,500 -2,160 Descending Boston Center
10:18AM 42.5347 -71.9414 97° East 394 453 14,500 -1,860 Descending Boston Center
10:19AM 42.5217 -71.8006 97° East 389 448 12,800 -1,800 Descending Boston Center
10:20AM 42.5103 -71.6656 96° East 376 433 11,000 -900 Descending Boston Center
10:21AM 42.4989 -71.5447 97° East 362 417 11,000  Level Boston Center
10:22AM 42.4897 -71.4433 97° East 349 402 11,000 -480 Level Boston Center
10:23AM 42.4833 -71.3000 93° East 256 295 10,100 -1,320 Descending KA90
10:24AM 42.4667 -71.2167 105° East 250 288 8,400 -1,020 Descending KA90
10:25AM 42.4667 -71.1167 90° East 244 281 8,000 -480 Descending KA90
10:26AM 42.5167 -71.0833 26° Northeast 224 258 7,500 -900 Descending KA90
10:27AM 42.5667 -71.0500 26° Northeast 223 257 6,300 -1,260 Descending KA90
10:28AM 42.6000 -70.9833 56° Northeast 239 275 5,100 -1,200 Descending KA90
10:29AM 42.5667 -70.9333 132° Southeast 240 276 4,000 -1,140 Descending KA90
10:30AM 42.5167 -70.9333 180° South 181 208 2,900 -1,020 Descending KA90
10:31AM 42.4667 -70.9500 194° South 180 207 2,000 -960 Descending KA90
10:32AM 42.4333 -70.9667 200° South 150 173 1,100 -840 Descending KA90
10:33AM 42.3833 -70.9833 194° South 144 166 400 -720 Descending KA90